Flight Track Log - Related Links

Times and Time Zones

All times are in EDT time to prevent confusion due to time zone crossing. See the ASA525 flight status page for this flight to view local times or setup timezone preferences in your user account.

Time Position Orientation Groundspeed Altitude Reporting Facility
EDT Latitude Longitude Course Direction KTS MPH feet Rate Location/Type
Tue 02:12:57 PM 34.1833 -118.3667 211° Southwest 162 186 2,100  Level Southern California TRACON
Tue 02:13:27 PM 34.1608 -118.3828 211° Southwest 173 199 2,700 1,677 Climbing Los Angeles Center
Tue 02:14:30 PM 34.1378 -118.4339 241° Southwest 214 246 4,700 2,419 Climbing Los Angeles Center
Tue 02:15:31 PM 34.2064 -118.4856 328° Northwest 251 289 7,700 2,732 Climbing Los Angeles Center
Tue 02:16:33 PM 34.2764 -118.5197 338° Northwest 267 307 10,300 2,565 Climbing Los Angeles Center
Tue 02:17:35 PM 34.3492 -118.5656 333° Northwest 288 331 13,000 2,661 Climbing Los Angeles Center
Tue 02:18:37 PM 34.4250 -118.6153 332° Northwest 304 350 15,800 2,736 Climbing Los Angeles Center
Tue 02:19:40 PM 34.5311 -118.6847 332° Northwest 358 412 18,700 2,736 Climbing Los Angeles Center
Tue 02:20:42 PM 34.6244 -118.7442 332° Northwest 375 432 21,500 2,710 Climbing Los Angeles Center
Tue 02:21:44 PM 34.7192 -118.8075 331° Northwest 385 443 24,300 2,371 Climbing Los Angeles Center
Tue 02:22:46 PM 34.8206 -118.8711 333° Northwest 404 465 26,400 2,081 Climbing Los Angeles Center
Tue 02:23:48 PM 34.9394 -118.9147 343° North 434 499 28,600 1,920 Climbing Los Angeles Center
Tue 02:24:51 PM 35.0569 -118.9600 342° North 444 511 30,400 1,984 Climbing Los Angeles Center
Tue 02:25:52 PM 35.2019 -119.0161 342° North 456 525 32,700 2,081 Climbing Los Angeles Center
Tue 02:26:55 PM 35.3228 -119.0617 343° North 458 527 34,700 1,742 Climbing Los Angeles Center
Tue 02:27:56 PM 35.4422 -119.1061 343° North 454 522 36,300 1,512 Climbing Los Angeles Center
Tue 02:28:58 PM 35.5581 -119.1528 342° North 446 513 37,800 1,344 Climbing Los Angeles Center
Tue 02:30:01 PM 35.6744 -119.1994 342° North 443 510 39,100 1,056 Climbing Los Angeles Center
Tue 02:31:03 PM 35.8125 -119.2517 343° North 437 503 40,000 435 Climbing Los Angeles Center
Tue 02:32:05 PM 35.9317 -119.2861 347° North 439 505 40,000  Level Los Angeles Center
Tue 02:32:37 PM 36.0028 -119.3050 348° North 445 512 40,000  Level Oakland Center
Tue 02:33:38 PM 36.1208 -119.3397 347° North 442 509 40,000  Level Oakland Center
Tue 02:34:40 PM 36.2406 -119.3736 347° North 442 509 40,000  Level Oakland Center
Tue 02:35:41 PM 36.3603 -119.4094 346° North 444 511 40,000  Level Oakland Center
Tue 02:36:42 PM 36.4783 -119.4461 346° North 439 505 40,000  Level Oakland Center
Tue 02:37:44 PM 36.5967 -119.4783 348° North 436 502 40,000  Level Oakland Center
Tue 02:38:45 PM 36.7147 -119.5144 346° North 437 503 40,000  Level Oakland Center
Tue 02:39:47 PM 36.8322 -119.5492 347° North 435 501 40,000  Level Oakland Center
Tue 02:40:48 PM 36.9756 -119.5914 347° North 442 509 40,000  Level Oakland Center
Tue 02:41:49 PM 37.0958 -119.6275 347° North 446 513 40,000  Level Oakland Center
Tue 02:42:51 PM 37.2153 -119.6644 346° North 443 510 40,000  Level Oakland Center
Tue 02:43:52 PM 37.3350 -119.7003 347° North 443 510 40,000  Level Oakland Center
Tue 02:44:53 PM 37.4453 -119.7336 347° North 442 509 40,000  Level Oakland Center
Tue 02:45:55 PM 37.5881 -119.7761 347° North 442 509 40,000  Level Oakland Center
Tue 02:46:56 PM 37.7072 -119.8128 346° North 440 506 40,000  Level Oakland Center
Tue 02:47:57 PM 37.8256 -119.8503 346° North 440 506 40,000  Level Oakland Center
Tue 02:48:59 PM 37.9453 -119.8856 347° North 442 509 40,000  Level Oakland Center
Tue 02:50:00 PM 38.0644 -119.9225 346° North 441 507 40,000  Level Oakland Center
Tue 02:51:01 PM 38.1839 -119.9597 346° North 442 509 40,000  Level Oakland Center
Tue 02:52:02 PM 38.3039 -119.9958 347° North 443 510 40,000  Level Oakland Center
Tue 02:53:04 PM 38.4242 -120.0336 346° North 445 512 40,000  Level Oakland Center
Tue 02:54:05 PM 38.5456 -120.0714 346° North 447 514 40,000  Level Oakland Center
Tue 02:55:06 PM 38.6933 -120.1172 346° North 452 520 40,000  Level Oakland Center
Tue 02:56:08 PM 38.8144 -120.1558 346° North 453 521 40,000  Level Oakland Center
Tue 02:57:09 PM 38.9383 -120.1947 346° North 457 526 40,000  Level Oakland Center
Tue 02:58:10 PM 39.0622 -120.2331 346° North 459 528 40,000  Level Oakland Center
Tue 02:59:11 PM 39.1847 -120.2733 346° North 458 527 40,000  Level Oakland Center
Tue 03:00:12 PM 39.3075 -120.3125 346° North 456 525 40,000  Level Oakland Center
Tue 03:01:14 PM 39.4308 -120.3508 347° North 459 528 40,000  Level Oakland Center
Tue 03:02:15 PM 39.5564 -120.3919 346° North 465 535 40,000  Level Oakland Center
Tue 03:03:16 PM 39.6817 -120.4317 346° North 466 536 40,000  Level Oakland Center
Tue 03:04:17 PM 39.8311 -120.4794 346° North 462 532 40,000  Level Oakland Center
Tue 03:05:18 PM 39.9544 -120.5183 346° North 459 528 40,000  Level Oakland Center
Tue 03:06:20 PM 40.0828 -120.5606 346° North 466 536 40,000  Level Oakland Center
Tue 03:07:21 PM 40.2072 -120.6014 346° North 465 535 40,000  Level Oakland Center
Tue 03:08:22 PM 40.3339 -120.6425 346° North 468 539 40,000  Level Oakland Center
Tue 03:09:23 PM 40.4606 -120.6842 346° North 473 544 40,000  Level Oakland Center
Tue 03:10:24 PM 40.5861 -120.7261 346° North 469 540 40,000  Level Oakland Center
Tue 03:11:26 PM 40.7111 -120.7672 346° North 466 536 40,000  Level Oakland Center
Tue 03:12:27 PM 40.8356 -120.8086 346° North 464 534 40,000  Level Oakland Center
Tue 03:13:28 PM 40.9611 -120.8514 346° North 466 536 40,000  Level Oakland Center
Tue 03:14:29 PM 41.1114 -120.9011 346° North 465 535 40,000  Level Oakland Center
Tue 03:15:30 PM 41.2367 -120.9444 345° North 466 536 40,000  Level Oakland Center
Tue 03:16:31 PM 41.3628 -120.9858 346° North 470 541 40,000  Level Oakland Center
Tue 03:17:33 PM 41.4875 -121.0281 346° North 465 535 40,000  Level Oakland Center
Tue 03:18:34 PM 41.6139 -121.0722 345° North 470 541 40,000  Level Oakland Center
Tue 03:19:35 PM 41.7400 -121.1164 345° North 470 541 40,000  Level Oakland Center
Tue 03:20:36 PM 41.8669 -121.1611 345° North 474 545 40,000  Level Oakland Center
Tue 03:21:37 PM 41.9928 -121.2044 346° North 473 544 40,000  Level Oakland Center
Tue 03:22:51 PM 42.1686 -121.2656 346° North 475 547 40,000 -44 Level Seattle Center
Tue 03:23:52 PM 42.2711 -121.3006 346° North 473 544 39,900 -49 Descending Seattle Center
Tue 03:24:53 PM 42.4228 -121.3533 346° North 469 540 39,900 49 Level Seattle Center
Tue 03:25:54 PM 42.5483 -121.3953 346° North 466 536 40,000  Climbing Seattle Center
Tue 03:26:55 PM 42.6739 -121.4403 345° North 469 540 39,900  Descending Seattle Center
Tue 03:27:57 PM 42.7875 -121.4822 345° North 466 536 40,000 49 Climbing Seattle Center
Tue 03:28:58 PM 42.9119 -121.5272 345° North 466 536 40,000  Level Seattle Center
Tue 03:29:59 PM 43.0497 -121.5767 345° North 473 544 40,000 -49 Level Seattle Center
Tue 03:31:00 PM 43.1747 -121.6214 345° North 469 540 39,900  Descending Seattle Center
Tue 03:32:01 PM 43.3044 -121.6714 344° North 467 537 40,000 49 Climbing Seattle Center
Tue 03:33:02 PM 43.4317 -121.7150 346° North 471 542 40,000  Level Seattle Center
Tue 03:34:03 PM 43.5589 -121.7619 345° North 471 542 40,000  Level Seattle Center
Tue 03:35:04 PM 43.6867 -121.8092 345° North 474 545 40,000  Level Seattle Center
Tue 03:36:06 PM 43.8139 -121.8553 345° North 471 542 40,000  Level Seattle Center
Tue 03:37:07 PM 43.9483 -121.9031 346° North 474 545 40,000  Level Seattle Center
Tue 03:38:08 PM 44.0742 -121.9503 345° North 471 542 40,000  Level Seattle Center
Tue 03:39:09 PM 44.2003 -121.9964 345° North 470 541 40,000  Level Seattle Center
Tue 03:40:10 PM 44.3239 -122.0439 345° North 465 535 40,000  Level Seattle Center
Tue 03:41:11 PM 44.4750 -122.0992 345° North 468 539 40,000  Level Seattle Center
Tue 03:42:12 PM 44.5986 -122.1467 345° North 464 534 40,000  Level Seattle Center
Tue 03:43:13 PM 44.7233 -122.1950 345° North 466 536 40,000  Level Seattle Center
Tue 03:44:14 PM 44.8478 -122.2425 345° North 465 535 40,000  Level Seattle Center
Tue 03:45:15 PM 44.9792 -122.2933 345° North 464 534 40,000  Level Seattle Center
Tue 03:46:16 PM 45.1047 -122.3403 345° North 471 542 40,000  Level Seattle Center
Tue 03:47:18 PM 45.2294 -122.3886 345° North 469 540 40,000 -49 Level Seattle Center
Tue 03:48:19 PM 45.3531 -122.4372 345° North 464 534 39,900 -49 Descending Seattle Center
Tue 03:49:20 PM 45.4767 -122.4853 345° North 464 534 39,900 49 Level Seattle Center
Tue 03:50:21 PM 45.6019 -122.5336 345° North 467 537 40,000 -393 Climbing Seattle Center
Tue 03:51:22 PM 45.7272 -122.5828 345° North 470 541 39,100 -1,623 Descending Seattle Center
Tue 03:52:23 PM 45.8558 -122.6183 349° North 472 543 36,700 -2,607 Descending Seattle Center
Tue 03:53:24 PM 45.9875 -122.6506 350° North 479 551 33,800 -3,197 Descending Seattle Center
Tue 03:54:25 PM 46.1492 -122.6892 351° North 493 567 30,200 -2,902 Descending Seattle Center
Tue 03:55:26 PM 46.2794 -122.7147 352° North 489 563 27,900 -2,016 Descending Seattle Center
Tue 03:56:27 PM 46.4111 -122.7214 358° North 482 555 26,100 -1,770 Descending Seattle Center
Tue 03:57:28 PM 46.5325 -122.7144 North 450 518 24,300 -2,043 Descending Seattle Center
Tue 03:58:01 PM 46.6064 -122.7114 North 421 484 22,900 -2,276 Descending Seattle Center
Tue 03:58:55 PM 46.7078 -122.7089 North 394 453 21,000 -1,867 Descending Seattle Center
Tue 03:59:31 PM 46.7553 -122.7072 North 391 450 20,100 -1,856 Descending Seattle Center
Tue 04:00:32 PM 46.8669 -122.6436 21° North 366 421 18,000 -2,459 Descending Seattle Center
Tue 04:01:33 PM 46.9478 -122.5575 36° Northeast 364 419 15,100 -2,508 Descending Seattle Center
Tue 04:02:34 PM 47.0408 -122.5167 17° North 350 403 12,900 -1,820 Descending Seattle Center
Tue 04:03:35 PM 47.1383 -122.4892 11° North 329 379 11,400 -1,377 Descending Seattle Center
Tue 04:04:36 PM 47.2253 -122.4744 North 314 361 10,100 -1,033 Descending Seattle Center
Tue 04:05:37 PM 47.3053 -122.4619 North 285 328 9,300 -1,033 Descending Seattle Center
Tue 04:06:38 PM 47.3800 -122.4547 North 272 313 8,000 -1,131 Descending Seattle Center
Tue 04:07:39 PM 47.4539 -122.4553 360° North 264 304 7,000 -934 Descending Seattle Center
Tue 04:08:40 PM 47.5217 -122.4550 360° North 244 281 6,100 -1,033 Descending Seattle Center
Tue 04:09:41 PM 47.5933 -122.4556 360° North 239 275 4,900 -1,033 Descending Seattle Center
Tue 04:10:42 PM 47.6203 -122.3889 59° Northeast 214 246 4,000 -836 Descending Seattle Center
Tue 04:11:43 PM 47.5892 -122.3319 129° Southeast 180 207 3,200 -738 Descending Seattle Center
Tue 04:12:44 PM 47.5442 -122.3169 167° South 166 191 2,500 -934 Descending Seattle Center
Tue 04:13:45 PM 47.4994 -122.3172 180° South 162 186 1,300 -1,033 Descending Seattle Center
Tue 04:14:46 PM 47.4617 -122.3178 181° South 139 160 400 -443 Descending Seattle Center
Tue 04:15:47 PM 47.4278 -122.3194 182° South 137 158 400  Level Seattle Center
Tue 04:17:00 PM 47.4499 -122.3118 176° South  Level Estimated

Login

Don't have an account? Register now (free) for customized features, flight alerts, and more!